sensor_id;sensor_type;location;lat;lon;timestamp;pressure;altitude;pressure_sealevel;temperature;humidity
48778;BME280;34578;0.000;0.000;2023-10-08T00:01:04;97641.03;;;19.18;52.51
48778;BME280;34578;0.000;0.000;2023-10-08T00:06:06;97651.19;;;19.18;53.14
48778;BME280;34578;0.000;0.000;2023-10-08T00:11:07;97644.41;;;19.18;52.48
48778;BME280;34578;0.000;0.000;2023-10-08T00:16:08;97634.25;;;19.17;52.71
48778;BME280;34578;0.000;0.000;2023-10-08T00:21:16;97635.97;;;19.18;52.53
48778;BME280;34578;0.000;0.000;2023-10-08T00:26:16;97634.25;;;19.17;52.61
48778;BME280;34578;0.000;0.000;2023-10-08T00:31:23;97637.63;;;19.17;53.29
48778;BME280;34578;0.000;0.000;2023-10-08T00:36:30;97641.03;;;19.18;52.90
48778;BME280;34578;0.000;0.000;2023-10-08T00:41:30;97635.09;;;19.16;53.92
48778;BME280;34578;0.000;0.000;2023-10-08T00:46:33;97625.75;;;19.15;53.22
48778;BME280;34578;0.000;0.000;2023-10-08T00:51:50;97622.41;;;19.16;52.81
48778;BME280;34578;0.000;0.000;2023-10-08T00:57:06;97613.06;;;19.16;52.77
48778;BME280;34578;0.000;0.000;2023-10-08T01:02:07;97613.94;;;19.17;52.73
48778;BME280;34578;0.000;0.000;2023-10-08T01:07:15;97611.41;;;19.17;53.16
48778;BME280;34578;0.000;0.000;2023-10-08T01:12:23;97606.31;;;19.17;53.01
48778;BME280;34578;0.000;0.000;2023-10-08T01:17:27;97600.38;;;19.16;52.90
48778;BME280;34578;0.000;0.000;2023-10-08T01:22:32;97592.75;;;19.15;53.09
48778;BME280;34578;0.000;0.000;2023-10-08T01:27:33;97593.63;;;19.17;52.68
48778;BME280;34578;0.000;0.000;2023-10-08T01:32:34;97583.47;;;19.17;53.15
48778;BME280;34578;0.000;0.000;2023-10-08T01:37:34;97594.47;;;19.16;52.95
48778;BME280;34578;0.000;0.000;2023-10-08T01:42:35;97590.19;;;19.15;53.60
48778;BME280;34578;0.000;0.000;2023-10-08T01:47:39;97590.19;;;19.15;53.91
48778;BME280;34578;0.000;0.000;2023-10-08T01:52:39;97595.28;;;19.15;54.44
48778;BME280;34578;0.000;0.000;2023-10-08T01:57:41;97582.59;;;19.15;53.44
48778;BME280;34578;0.000;0.000;2023-10-08T02:02:43;97580.06;;;19.15;53.56
48778;BME280;34578;0.000;0.000;2023-10-08T02:07:43;97584.31;;;19.16;52.81
48778;BME280;34578;0.000;0.000;2023-10-08T02:12:46;97575.84;;;19.15;52.55
48778;BME280;34578;0.000;0.000;2023-10-08T02:17:47;97585.13;;;19.15;53.10
48778;BME280;34578;0.000;0.000;2023-10-08T02:22:49;97591.94;;;19.16;52.69
48778;BME280;34578;0.000;0.000;2023-10-08T02:27:49;97585.97;;;19.14;53.79
48778;BME280;34578;0.000;0.000;2023-10-08T02:32:50;97585.13;;;19.15;52.87
48778;BME280;34578;0.000;0.000;2023-10-08T02:37:51;97585.13;;;19.15;53.55
48778;BME280;34578;0.000;0.000;2023-10-08T02:42:54;97582.59;;;19.15;53.21
48778;BME280;34578;0.000;0.000;2023-10-08T02:47:58;97580.06;;;19.15;53.09
48778;BME280;34578;0.000;0.000;2023-10-08T02:52:59;97574.97;;;19.15;53.21
48778;BME280;34578;0.000;0.000;2023-10-08T02:58:03;97573.28;;;19.14;54.45
48778;BME280;34578;0.000;0.000;2023-10-08T03:03:04;97575.81;;;19.14;53.97
48778;BME280;34578;0.000;0.000;2023-10-08T03:08:16;97573.28;;;19.14;53.01
48778;BME280;34578;0.000;0.000;2023-10-08T03:13:21;97571.59;;;19.14;53.28
48778;BME280;34578;0.000;0.000;2023-10-08T03:18:22;97569.91;;;19.15;53.14
48778;BME280;34578;0.000;0.000;2023-10-08T03:23:22;97567.38;;;19.13;53.33
48778;BME280;34578;0.000;0.000;2023-10-08T03:28:34;97566.50;;;19.13;53.81
48778;BME280;34578;0.000;0.000;2023-10-08T03:33:35;97569.91;;;19.15;53.17
48778;BME280;34578;0.000;0.000;2023-10-08T03:38:37;97566.50;;;19.13;53.43
48778;BME280;34578;0.000;0.000;2023-10-08T03:43:53;97565.66;;;19.14;53.94
48778;BME280;34578;0.000;0.000;2023-10-08T03:48:58;97566.50;;;19.13;53.33
48778;BME280;34578;0.000;0.000;2023-10-08T03:54:08;97572.44;;;19.13;53.09
48778;BME280;34578;0.000;0.000;2023-10-08T03:59:19;97566.50;;;19.13;53.56
48778;BME280;34578;0.000;0.000;2023-10-08T04:04:30;97576.66;;;19.13;54.34
48778;BME280;34578;0.000;0.000;2023-10-08T04:09:49;97574.13;;;19.13;53.72
48778;BME280;34578;0.000;0.000;2023-10-08T04:14:52;97561.41;;;19.13;53.57
48778;BME280;34578;0.000;0.000;2023-10-08T04:19:56;97563.06;;;19.08;54.77
48778;BME280;34578;0.000;0.000;2023-10-08T04:24:58;97565.66;;;19.12;53.56
48778;BME280;34578;0.000;0.000;2023-10-08T04:30:03;97564.81;;;19.12;54.46
48778;BME280;34578;0.000;0.000;2023-10-08T04:35:03;97569.88;;;19.12;54.22
48778;BME280;34578;0.000;0.000;2023-10-08T04:40:08;97571.59;;;19.11;54.72
48778;BME280;34578;0.000;0.000;2023-10-08T04:45:16;97581.72;;;19.13;54.23
48778;BME280;34578;0.000;0.000;2023-10-08T04:50:19;97570.72;;;19.11;53.67
48778;BME280;34578;0.000;0.000;2023-10-08T04:55:21;97564.78;;;19.10;54.91
48778;BME280;34578;0.000;0.000;2023-10-08T05:00:28;97567.31;;;19.10;53.83
48778;BME280;34578;0.000;0.000;2023-10-08T05:05:44;97557.13;;;19.07;54.27
48778;BME280;34578;0.000;0.000;2023-10-08T05:11:14;97561.41;;;19.10;54.60
48778;BME280;34578;0.000;0.000;2023-10-08T05:16:24;97561.41;;;19.10;53.63
48778;BME280;34578;0.000;0.000;2023-10-08T05:21:43;97563.06;;;19.09;53.36
48778;BME280;34578;0.000;0.000;2023-10-08T05:26:51;97566.47;;;19.10;54.47
48778;BME280;34578;0.000;0.000;2023-10-08T05:32:09;97559.69;;;19.09;54.72
48778;BME280;34578;0.000;0.000;2023-10-08T05:37:28;97547.78;;;19.05;54.88
48778;BME280;34578;0.000;0.000;2023-10-08T05:42:41;97554.63;;;19.09;54.99
48778;BME280;34578;0.000;0.000;2023-10-08T05:47:46;97549.53;;;19.09;54.46
48778;BME280;34578;0.000;0.000;2023-10-08T05:53:08;97552.94;;;19.08;54.91
48778;BME280;34578;0.000;0.000;2023-10-08T05:58:40;97553.78;;;19.10;55.02
48778;BME280;34578;0.000;0.000;2023-10-08T06:03:46;97564.78;;;19.09;54.74
48778;BME280;34578;0.000;0.000;2023-10-08T06:09:00;97547.78;;;19.05;55.45
48778;BME280;34578;0.000;0.000;2023-10-08T06:14:09;97558.00;;;19.09;53.94
48778;BME280;34578;0.000;0.000;2023-10-08T06:19:36;97564.78;;;19.09;54.77
48778;BME280;34578;0.000;0.000;2023-10-08T06:24:38;97574.94;;;19.09;55.23
48778;BME280;34578;0.000;0.000;2023-10-08T06:29:39;97565.59;;;19.09;54.24
48778;BME280;34578;0.000;0.000;2023-10-08T06:34:44;97567.31;;;19.09;54.78
48778;BME280;34578;0.000;0.000;2023-10-08T06:39:45;97574.94;;;19.09;54.25
48778;BME280;34578;0.000;0.000;2023-10-08T06:44:48;97582.53;;;19.10;54.61
48778;BME280;34578;0.000;0.000;2023-10-08T06:49:49;97584.25;;;19.10;54.56
48778;BME280;34578;0.000;0.000;2023-10-08T06:54:49;97600.38;;;19.13;55.36
48778;BME280;34578;0.000;0.000;2023-10-08T06:59:53;97607.91;;;19.07;54.07
48778;BME280;34578;0.000;0.000;2023-10-08T07:04:53;97613.72;;;18.99;53.08
48778;BME280;34578;0.000;0.000;2023-10-08T07:09:54;97618.84;;;19.02;53.25
48778;BME280;34578;0.000;0.000;2023-10-08T07:14:58;97623.94;;;19.05;53.72
48778;BME280;34578;0.000;0.000;2023-10-08T07:19:58;97630.78;;;19.09;53.18
48778;BME280;34578;0.000;0.000;2023-10-08T07:24:59;97624.84;;;19.10;53.01
48778;BME280;34578;0.000;0.000;2023-10-08T07:29:59;97622.31;;;19.10;53.15
48778;BME280;34578;0.000;0.000;2023-10-08T07:35:03;97621.47;;;19.11;53.01
48778;BME280;34578;0.000;0.000;2023-10-08T07:40:28;97619.81;;;19.11;53.35
48778;BME280;34578;0.000;0.000;2023-10-08T07:45:29;97624.88;;;19.13;53.21
48778;BME280;34578;0.000;0.000;2023-10-08T07:50:40;97614.72;;;19.11;53.47
48778;BME280;34578;0.000;0.000;2023-10-08T07:55:41;97630.78;;;19.12;54.09
48778;BME280;34578;0.000;0.000;2023-10-08T08:00:42;97624.88;;;19.11;54.14
48778;BME280;34578;0.000;0.000;2023-10-08T08:05:51;97635.03;;;19.13;53.31
48778;BME280;34578;0.000;0.000;2023-10-08T08:10:53;97623.56;;;19.43;54.03
48778;BME280;34578;0.000;0.000;2023-10-08T08:16:03;97638.56;;;19.21;54.28
48778;BME280;34578;0.000;0.000;2023-10-08T08:21:16;97637.69;;;19.19;53.84
48778;BME280;34578;0.000;0.000;2023-10-08T08:26:23;97631.72;;;19.17;53.53
48778;BME280;34578;0.000;0.000;2023-10-08T08:31:28;97633.34;;;19.12;54.62
48778;BME280;34578;0.000;0.000;2023-10-08T08:36:31;97635.91;;;19.15;53.74
48778;BME280;34578;0.000;0.000;2023-10-08T08:41:32;97625.75;;;19.15;53.17
48778;BME280;34578;0.000;0.000;2023-10-08T08:46:37;97637.63;;;19.16;53.66
48778;BME280;34578;0.000;0.000;2023-10-08T08:51:38;97625.75;;;19.13;53.58
48778;BME280;34578;0.000;0.000;2023-10-08T08:56:40;97616.44;;;19.14;54.87
48778;BME280;34578;0.000;0.000;2023-10-08T09:01:41;97624.03;;;19.14;54.11
48778;BME280;34578;0.000;0.000;2023-10-08T09:06:42;97615.59;;;19.15;54.19
48778;BME280;34578;0.000;0.000;2023-10-08T09:11:45;97618.97;;;19.14;53.57
48778;BME280;34578;0.000;0.000;2023-10-08T09:16:45;97627.41;;;19.13;54.93
48778;BME280;34578;0.000;0.000;2023-10-08T09:22:04;97624.91;;;19.14;53.81
48778;BME280;34578;0.000;0.000;2023-10-08T09:27:09;97619.78;;;19.10;53.51
48778;BME280;34578;0.000;0.000;2023-10-08T09:32:11;97635.09;;;19.16;53.59
48778;BME280;34578;0.000;0.000;2023-10-08T09:37:13;97630.81;;;19.15;53.43
48778;BME280;34578;0.000;0.000;2023-10-08T09:42:14;97629.13;;;19.12;54.08
48778;BME280;34578;0.000;0.000;2023-10-08T09:47:20;97637.63;;;19.16;53.54
48778;BME280;34578;0.000;0.000;2023-10-08T09:52:22;97635.06;;;19.14;53.55
48778;BME280;34578;0.000;0.000;2023-10-08T09:57:23;97638.44;;;19.13;53.55
48778;BME280;34578;0.000;0.000;2023-10-08T10:02:29;97646.06;;;19.15;53.54
48778;BME280;34578;0.000;0.000;2023-10-08T10:07:31;97652.81;;;19.11;53.65
48778;BME280;34578;0.000;0.000;2023-10-08T10:12:31;97660.44;;;19.14;53.57
48778;BME280;34578;0.000;0.000;2023-10-08T10:17:32;97653.66;;;19.12;54.73
48778;BME280;34578;0.000;0.000;2023-10-08T10:22:34;97668.94;;;19.16;53.56
48778;BME280;34578;0.000;0.000;2023-10-08T10:27:35;97669.75;;;19.14;54.65
48778;BME280;34578;0.000;0.000;2023-10-08T10:32:36;97671.44;;;19.15;54.22
48778;BME280;34578;0.000;0.000;2023-10-08T10:37:37;97678.25;;;19.16;54.02
48778;BME280;34578;0.000;0.000;2023-10-08T10:42:51;97675.69;;;19.14;53.68
48778;BME280;34578;0.000;0.000;2023-10-08T10:47:54;97669.75;;;19.14;53.59
48778;BME280;34578;0.000;0.000;2023-10-08T10:53:11;97681.59;;;19.15;53.60
48778;BME280;34578;0.000;0.000;2023-10-08T10:58:11;97686.66;;;19.15;54.28
48778;BME280;34578;0.000;0.000;2023-10-08T11:03:12;97689.22;;;19.15;53.51
48778;BME280;34578;0.000;0.000;2023-10-08T11:08:21;97694.28;;;19.15;53.93
48778;BME280;34578;0.000;0.000;2023-10-08T11:13:24;97676.47;;;19.12;54.35
48778;BME280;34578;0.000;0.000;2023-10-08T11:18:28;97674.06;;;19.19;54.67
48778;BME280;34578;0.000;0.000;2023-10-08T11:23:37;97663.91;;;19.19;54.22
48778;BME280;34578;0.000;0.000;2023-10-08T11:28:41;97662.19;;;19.17;54.69
48778;BME280;34578;0.000;0.000;2023-10-08T11:33:43;97659.59;;;19.14;54.64
48778;BME280;34578;0.000;0.000;2023-10-08T11:38:59;97659.72;;;19.21;54.59
48778;BME280;34578;0.000;0.000;2023-10-08T11:44:08;97659.69;;;19.20;54.13
48778;BME280;34578;0.000;0.000;2023-10-08T11:49:13;97655.50;;;19.20;53.91
48778;BME280;34578;0.000;0.000;2023-10-08T11:54:19;97645.34;;;19.20;54.08
48778;BME280;34578;0.000;0.000;2023-10-08T11:59:20;97634.31;;;19.20;54.27
48778;BME280;34578;0.000;0.000;2023-10-08T12:04:20;97643.59;;;19.19;54.19
48778;BME280;34578;0.000;0.000;2023-10-08T12:09:23;97642.75;;;19.19;54.15
48778;BME280;34578;0.000;0.000;2023-10-08T12:14:27;97631.72;;;19.18;53.64
48778;BME280;34578;0.000;0.000;2023-10-08T12:19:30;97627.53;;;19.19;54.05
48778;BME280;34578;0.000;0.000;2023-10-08T12:24:32;97618.22;;;19.19;53.54
48778;BME280;34578;0.000;0.000;2023-10-08T12:29:33;97612.31;;;19.19;54.39
48778;BME280;34578;0.000;0.000;2023-10-08T12:34:35;97606.31;;;19.18;54.33
48778;BME280;34578;0.000;0.000;2023-10-08T12:39:35;97602.16;;;19.19;53.99
48778;BME280;34578;0.000;0.000;2023-10-08T12:44:44;97597.00;;;19.17;54.00
48778;BME280;34578;0.000;0.000;2023-10-08T12:49:47;97590.25;;;19.18;54.49
48778;BME280;34578;0.000;0.000;2023-10-08T12:54:48;97592.00;;;19.19;54.06
48778;BME280;34578;0.000;0.000;2023-10-08T12:59:49;97580.09;;;19.18;54.33
48778;BME280;34578;0.000;0.000;2023-10-08T13:04:52;97586.91;;;19.19;54.23
48778;BME280;34578;0.000;0.000;2023-10-08T13:09:55;97576.75;;;19.19;54.17
48778;BME280;34578;0.000;0.000;2023-10-08T13:14:55;97575.91;;;19.20;54.36
48778;BME280;34578;0.000;0.000;2023-10-08T13:19:55;97563.13;;;19.14;54.35
48778;BME280;34578;0.000;0.000;2023-10-08T13:24:56;97578.50;;;19.21;54.25
48778;BME280;34578;0.000;0.000;2023-10-08T13:29:56;97576.78;;;19.22;54.31
48778;BME280;34578;0.000;0.000;2023-10-08T13:34:57;97579.31;;;19.22;54.46
48778;BME280;34578;0.000;0.000;2023-10-08T13:39:58;97576.78;;;19.22;54.08
48778;BME280;34578;0.000;0.000;2023-10-08T13:44:58;97573.41;;;19.23;54.14
48778;BME280;34578;0.000;0.000;2023-10-08T13:49:59;97570.88;;;19.24;54.58
48778;BME280;34578;0.000;0.000;2023-10-08T13:54:59;97559.91;;;19.24;54.56
48778;BME280;34578;0.000;0.000;2023-10-08T14:00:00;97555.66;;;19.24;54.72
48778;BME280;34578;0.000;0.000;2023-10-08T14:05:04;97556.53;;;19.25;54.45
48778;BME280;34578;0.000;0.000;2023-10-08T14:10:09;97545.50;;;19.24;54.60
48778;BME280;34578;0.000;0.000;2023-10-08T14:15:17;97545.53;;;19.26;54.73
48778;BME280;34578;0.000;0.000;2023-10-08T14:20:17;97531.09;;;19.23;54.48
48778;BME280;34578;0.000;0.000;2023-10-08T14:25:26;97526.91;;;19.24;54.43
48778;BME280;34578;0.000;0.000;2023-10-08T14:30:28;97520.09;;;19.23;54.29
48778;BME280;34578;0.000;0.000;2023-10-08T14:35:30;97516.72;;;19.22;54.74
48778;BME280;34578;0.000;0.000;2023-10-08T14:40:48;97503.97;;;19.19;54.66
48778;BME280;34578;0.000;0.000;2023-10-08T14:46:07;97515.03;;;19.21;54.47
48778;BME280;34578;0.000;0.000;2023-10-08T14:51:09;97520.94;;;19.22;54.34
48778;BME280;34578;0.000;0.000;2023-10-08T14:56:16;97519.22;;;19.21;54.39
48778;BME280;34578;0.000;0.000;2023-10-08T15:01:18;97511.63;;;19.22;54.33
48778;BME280;34578;0.000;0.000;2023-10-08T15:06:19;97505.69;;;19.22;54.57
48778;BME280;34578;0.000;0.000;2023-10-08T15:11:20;97502.28;;;19.20;54.44
48778;BME280;34578;0.000;0.000;2023-10-08T15:16:21;97509.94;;;19.21;54.39
48778;BME280;34578;0.000;0.000;2023-10-08T15:21:26;97510.78;;;19.22;54.22
48778;BME280;34578;0.000;0.000;2023-10-08T15:26:26;97500.63;;;19.20;54.29
48778;BME280;34578;0.000;0.000;2023-10-08T15:31:27;97506.56;;;19.22;54.57
48778;BME280;34578;0.000;0.000;2023-10-08T15:36:27;97511.63;;;19.21;54.44
48778;BME280;34578;0.000;0.000;2023-10-08T15:41:27;97514.16;;;19.21;54.47
48778;BME280;34578;0.000;0.000;2023-10-08T15:46:28;97509.06;;;19.21;54.32
48778;BME280;34578;0.000;0.000;2023-10-08T15:51:29;97503.16;;;19.20;54.43
48778;BME280;34578;0.000;0.000;2023-10-08T15:56:31;97506.53;;;19.21;54.32
48778;BME280;34578;0.000;0.000;2023-10-08T16:01:32;97512.47;;;19.23;56.14
48778;BME280;34578;0.000;0.000;2023-10-08T16:06:32;97514.19;;;19.24;55.83
48778;BME280;34578;0.000;0.000;2023-10-08T16:11:33;97509.94;;;19.21;56.05
48778;BME280;34578;0.000;0.000;2023-10-08T16:16:34;97503.09;;;19.17;55.78
48778;BME280;34578;0.000;0.000;2023-10-08T16:21:36;97512.47;;;19.23;55.65
48778;BME280;34578;0.000;0.000;2023-10-08T16:26:41;97515.84;;;19.22;55.69
48778;BME280;34578;0.000;0.000;2023-10-08T16:31:42;97519.25;;;19.22;55.60
48778;BME280;34578;0.000;0.000;2023-10-08T16:36:43;97523.50;;;19.23;55.63
48778;BME280;34578;0.000;0.000;2023-10-08T16:41:45;97521.78;;;19.22;55.59
48778;BME280;34578;0.000;0.000;2023-10-08T16:46:45;97531.09;;;19.22;55.43
48778;BME280;34578;0.000;0.000;2023-10-08T16:51:46;97520.94;;;19.22;55.39
48778;BME280;34578;0.000;0.000;2023-10-08T16:56:47;97527.72;;;19.21;55.23
48778;BME280;34578;0.000;0.000;2023-10-08T17:01:47;97534.50;;;19.24;55.67
48778;BME280;34578;0.000;0.000;2023-10-08T17:06:47;97532.78;;;19.23;55.34
48778;BME280;34578;0.000;0.000;2023-10-08T17:11:48;97532.84;;;19.29;56.16
48778;BME280;34578;0.000;0.000;2023-10-08T17:16:49;97534.56;;;19.30;55.58
48778;BME280;34578;0.000;0.000;2023-10-08T17:21:49;97543.88;;;19.32;55.81
48778;BME280;34578;0.000;0.000;2023-10-08T17:26:50;97538.03;;;19.36;56.18
48778;BME280;34578;0.000;0.000;2023-10-08T17:31:51;97536.34;;;19.40;56.56
48778;BME280;34578;0.000;0.000;2023-10-08T17:36:52;97546.50;;;19.40;57.05
48778;BME280;34578;0.000;0.000;2023-10-08T17:41:53;97549.91;;;19.42;57.14
48778;BME280;34578;0.000;0.000;2023-10-08T17:46:54;97550.75;;;19.41;57.53
48778;BME280;34578;0.000;0.000;2023-10-08T17:51:54;97551.56;;;19.40;57.56
48778;BME280;34578;0.000;0.000;2023-10-08T17:56:55;97543.16;;;19.41;57.44
48778;BME280;34578;0.000;0.000;2023-10-08T18:01:55;97535.53;;;19.41;57.21
48778;BME280;34578;0.000;0.000;2023-10-08T18:06:55;97534.69;;;19.42;57.17
48778;BME280;34578;0.000;0.000;2023-10-08T18:11:56;97531.28;;;19.44;57.02
48778;BME280;34578;0.000;0.000;2023-10-08T18:16:58;97527.09;;;19.48;56.14
48778;BME280;34578;0.000;0.000;2023-10-08T18:21:58;97536.41;;;19.46;56.56
48778;BME280;34578;0.000;0.000;2023-10-08T18:27:00;97533.06;;;19.50;56.43
48778;BME280;34578;0.000;0.000;2023-10-08T18:32:00;97531.38;;;19.49;57.11
48778;BME280;34578;0.000;0.000;2023-10-08T18:37:01;97535.59;;;19.48;56.60
48778;BME280;34578;0.000;0.000;2023-10-08T18:42:02;97527.09;;;19.48;56.72
48778;BME280;34578;0.000;0.000;2023-10-08T18:47:02;97522.84;;;19.47;56.76
48778;BME280;34578;0.000;0.000;2023-10-08T18:52:04;97516.06;;;19.43;57.25
48778;BME280;34578;0.000;0.000;2023-10-08T18:57:05;97510.97;;;19.44;57.00
48778;BME280;34578;0.000;0.000;2023-10-08T19:02:06;97523.69;;;19.46;56.76
48778;BME280;34578;0.000;0.000;2023-10-08T19:07:06;97516.94;;;19.46;56.81
48778;BME280;34578;0.000;0.000;2023-10-08T19:12:07;97511.00;;;19.46;57.09
48778;BME280;34578;0.000;0.000;2023-10-08T19:17:07;97504.22;;;19.45;57.32
48778;BME280;34578;0.000;0.000;2023-10-08T19:22:09;97505.91;;;19.46;57.09
48778;BME280;34578;0.000;0.000;2023-10-08T19:27:10;97494.91;;;19.41;57.10
48778;BME280;34578;0.000;0.000;2023-10-08T19:32:14;97510.16;;;19.45;56.56
48778;BME280;34578;0.000;0.000;2023-10-08T19:37:15;97489.81;;;19.44;56.78
48778;BME280;34578;0.000;0.000;2023-10-08T19:42:15;97489.81;;;19.44;56.94
48778;BME280;34578;0.000;0.000;2023-10-08T19:47:16;97494.88;;;19.42;56.08
48778;BME280;34578;0.000;0.000;2023-10-08T19:52:17;97500.81;;;19.43;55.87
48778;BME280;34578;0.000;0.000;2023-10-08T19:57:17;97499.13;;;19.42;55.78
48778;BME280;34578;0.000;0.000;2023-10-08T20:02:17;97494.88;;;19.42;55.71
48778;BME280;34578;0.000;0.000;2023-10-08T20:07:18;97495.75;;;19.43;55.64
48778;BME280;34578;0.000;0.000;2023-10-08T20:12:18;97479.66;;;19.42;55.97
48778;BME280;34578;0.000;0.000;2023-10-08T20:17:19;97478.81;;;19.42;55.66
48778;BME280;34578;0.000;0.000;2023-10-08T20:22:19;97489.81;;;19.42;55.36
48778;BME280;34578;0.000;0.000;2023-10-08T20:27:22;97490.59;;;19.37;58.32
48778;BME280;34578;0.000;0.000;2023-10-08T20:32:23;97494.78;;;19.29;58.52
48778;BME280;34578;0.000;0.000;2023-10-08T20:37:28;97498.19;;;19.32;57.49
48778;BME280;34578;0.000;0.000;2023-10-08T20:42:30;97497.31;;;19.29;57.92
48778;BME280;34578;0.000;0.000;2023-10-08T20:47:30;97496.44;;;19.27;57.50
48778;BME280;34578;0.000;0.000;2023-10-08T20:52:31;97494.75;;;19.26;57.21
48778;BME280;34578;0.000;0.000;2023-10-08T20:57:31;97499.88;;;19.30;56.73
48778;BME280;34578;0.000;0.000;2023-10-08T21:02:33;97495.66;;;19.34;57.12
48778;BME280;34578;0.000;0.000;2023-10-08T21:07:35;97492.28;;;19.35;56.41
48778;BME280;34578;0.000;0.000;2023-10-08T21:12:39;97495.69;;;19.37;56.03
48778;BME280;34578;0.000;0.000;2023-10-08T21:17:41;97486.38;;;19.36;56.02
48778;BME280;34578;0.000;0.000;2023-10-08T21:22:43;97480.44;;;19.37;55.78
48778;BME280;34578;0.000;0.000;2023-10-08T21:27:50;97475.41;;;19.38;55.85
48778;BME280;34578;0.000;0.000;2023-10-08T21:32:51;97467.75;;;19.37;55.72
48778;BME280;34578;0.000;0.000;2023-10-08T21:37:55;97467.78;;;19.38;55.58
48778;BME280;34578;0.000;0.000;2023-10-08T21:42:56;97461.84;;;19.38;55.53
48778;BME280;34578;0.000;0.000;2023-10-08T21:47:57;97458.44;;;19.36;55.40
48778;BME280;34578;0.000;0.000;2023-10-08T21:52:59;97458.47;;;19.37;55.53
48778;BME280;34578;0.000;0.000;2023-10-08T21:58:00;97453.38;;;19.37;55.33
48778;BME280;34578;0.000;0.000;2023-10-08T22:03:01;97451.69;;;19.38;55.58
48778;BME280;34578;0.000;0.000;2023-10-08T22:08:02;97446.59;;;19.35;55.40
48778;BME280;34578;0.000;0.000;2023-10-08T22:13:06;97446.59;;;19.38;55.65
48778;BME280;34578;0.000;0.000;2023-10-08T22:18:08;97447.44;;;19.37;55.33
48778;BME280;34578;0.000;0.000;2023-10-08T22:23:10;97438.97;;;19.38;55.28
48778;BME280;34578;0.000;0.000;2023-10-08T22:28:15;97437.28;;;19.37;55.41
48778;BME280;34578;0.000;0.000;2023-10-08T22:33:21;97435.59;;;19.36;55.57
48778;BME280;34578;0.000;0.000;2023-10-08T22:38:34;97429.66;;;19.37;55.62
48778;BME280;34578;0.000;0.000;2023-10-08T22:43:39;97422.88;;;19.36;55.38
48778;BME280;34578;0.000;0.000;2023-10-08T22:48:45;97420.34;;;19.36;55.07
48778;BME280;34578;0.000;0.000;2023-10-08T22:53:50;97410.19;;;19.36;55.31
48778;BME280;34578;0.000;0.000;2023-10-08T22:58:51;97403.41;;;19.35;55.38
48778;BME280;34578;0.000;0.000;2023-10-08T23:03:52;97390.72;;;19.35;55.49
48778;BME280;34578;0.000;0.000;2023-10-08T23:08:53;97387.34;;;19.36;55.19
48778;BME280;34578;0.000;0.000;2023-10-08T23:13:55;97388.22;;;19.36;55.23
48778;BME280;34578;0.000;0.000;2023-10-08T23:18:59;97391.56;;;19.37;55.40
48778;BME280;34578;0.000;0.000;2023-10-08T23:24:01;97391.56;;;19.35;55.09
48778;BME280;34578;0.000;0.000;2023-10-08T23:29:07;97389.03;;;19.37;55.27
48778;BME280;34578;0.000;0.000;2023-10-08T23:34:08;97384.78;;;19.34;55.39
48778;BME280;34578;0.000;0.000;2023-10-08T23:39:10;97379.72;;;19.36;55.47
48778;BME280;34578;0.000;0.000;2023-10-08T23:44:17;97387.34;;;19.36;55.25
48778;BME280;34578;0.000;0.000;2023-10-08T23:49:30;97377.19;;;19.36;55.34
48778;BME280;34578;0.000;0.000;2023-10-08T23:54:30;97376.31;;;19.35;55.61
48778;BME280;34578;0.000;0.000;2023-10-08T23:59:33;97377.19;;;19.36;55.52
